createdAt,value
2023-04-01T00:01:31.134Z,11.10
2023-04-01T00:04:02.990Z,11.10
2023-04-01T00:06:29.738Z,11.00
2023-04-01T00:08:56.283Z,11.10
2023-04-01T00:11:23.212Z,11.10
2023-04-01T00:13:52.224Z,11.00
2023-04-01T00:16:22.544Z,10.90
2023-04-01T00:18:50.278Z,10.90
2023-04-01T00:21:19.314Z,11.00
2023-04-01T00:23:45.984Z,10.90
2023-04-01T00:26:13.451Z,10.90
2023-04-01T00:28:40.168Z,10.80
2023-04-01T00:31:07.833Z,10.80
2023-04-01T00:33:36.866Z,10.90
2023-04-01T00:36:07.483Z,10.90
2023-04-01T00:38:34.087Z,10.90
2023-04-01T00:41:03.077Z,10.90
2023-04-01T00:43:32.059Z,10.90
2023-04-01T00:46:00.965Z,10.90
2023-04-01T00:48:29.829Z,10.80
2023-04-01T00:50:59.088Z,10.80
2023-04-01T00:53:25.959Z,10.80
2023-04-01T00:55:57.363Z,10.70
2023-04-01T00:58:25.104Z,10.80
2023-04-01T01:00:52.419Z,11.00
2023-04-01T01:03:19.244Z,10.70
2023-04-01T01:06:00.626Z,10.70
2023-04-01T01:08:32.633Z,10.60
2023-04-01T01:10:59.197Z,10.90
2023-04-01T01:13:57.962Z,10.70
2023-04-01T01:16:30.457Z,10.60
2023-04-01T01:18:57.039Z,10.60
2023-04-01T01:21:42.060Z,10.50
2023-04-01T01:24:14.166Z,10.40
2023-04-01T01:26:59.784Z,10.70
2023-04-01T01:29:44.906Z,10.40
2023-04-01T01:32:17.324Z,10.40
2023-04-01T01:35:02.497Z,10.50
2023-04-01T01:37:30.634Z,10.40
2023-04-01T01:40:02.272Z,10.60
2023-04-01T01:42:30.289Z,10.30
2023-04-01T01:44:57.636Z,10.50
2023-04-01T01:47:28.238Z,10.50
2023-04-01T01:49:57.922Z,10.50
2023-04-01T01:52:27.184Z,10.30
2023-04-01T01:54:54.761Z,10.50
2023-04-01T01:57:24.575Z,10.40
2023-04-01T01:59:52.061Z,10.50
2023-04-01T02:02:22.146Z,10.40
2023-04-01T02:04:49.102Z,10.50
2023-04-01T02:07:19.911Z,10.20
2023-04-01T02:09:49.224Z,10.40
2023-04-01T02:12:17.822Z,10.30
2023-04-01T02:14:46.741Z,10.40
2023-04-01T02:17:17.809Z,10.40
2023-04-01T02:19:58.483Z,10.40
2023-04-01T02:22:28.858Z,10.40
2023-04-01T02:24:58.181Z,10.30
2023-04-01T02:27:25.246Z,10.30
2023-04-01T02:29:52.537Z,10.30
2023-04-01T02:32:20.276Z,10.30
2023-04-01T02:34:47.404Z,10.20
2023-04-01T02:37:14.633Z,10.20
2023-04-01T02:39:43.562Z,10.30
2023-04-01T02:42:10.262Z,10.30
2023-04-01T02:44:39.066Z,10.40
2023-04-01T02:47:05.718Z,10.40
2023-04-01T02:49:32.332Z,10.30
2023-04-01T02:51:58.847Z,10.30
2023-04-01T02:54:25.555Z,10.30
2023-04-01T02:56:52.473Z,10.30
2023-04-01T02:59:19.105Z,10.20
2023-04-01T03:01:45.669Z,10.20
2023-04-01T03:04:12.273Z,10.20
2023-04-01T03:06:38.802Z,10.20
2023-04-01T03:09:05.789Z,10.20
2023-04-01T03:11:32.405Z,10.20
2023-04-01T03:13:59.008Z,10.30
2023-04-01T03:16:25.840Z,10.20
2023-04-01T03:18:53.490Z,10.10
2023-04-01T03:21:21.389Z,10.20
2023-04-01T03:23:50.584Z,10.20
2023-04-01T03:26:17.501Z,10.20
2023-04-01T03:28:44.151Z,10.10
2023-04-01T03:31:11.318Z,10.10
2023-04-01T03:33:38.043Z,10.10
2023-04-01T03:36:07.375Z,10.10
2023-04-01T03:38:36.948Z,10.10
2023-04-01T03:41:03.592Z,10.20
2023-04-01T03:43:30.246Z,10.20
2023-04-01T03:45:58.894Z,10.00
2023-04-01T03:48:26.385Z,10.20
2023-04-01T03:50:53.019Z,10.00
2023-04-01T03:53:19.673Z,10.10
2023-04-01T03:55:46.246Z,10.10
2023-04-01T03:58:12.848Z,10.10
2023-04-01T04:00:39.362Z,10.10
2023-04-01T04:03:08.224Z,10.10
2023-04-01T04:05:35.122Z,10.10
2023-04-01T04:08:02.345Z,10.10
2023-04-01T04:10:30.142Z,10.10
2023-04-01T04:12:57.147Z,10.10
2023-04-01T04:15:23.769Z,10.10
2023-04-01T04:17:50.474Z,10.10
2023-04-01T04:20:17.071Z,10.00
2023-04-01T04:22:43.733Z,10.00
2023-04-01T04:25:10.330Z,10.00
2023-04-01T04:27:36.873Z,10.00
2023-04-01T04:30:04.017Z,9.90
2023-04-01T04:32:33.115Z,10.00
2023-04-01T04:34:59.646Z,10.00
2023-04-01T04:37:26.768Z,9.90
2023-04-01T04:39:53.492Z,9.90
2023-04-01T04:42:22.233Z,10.00
2023-04-01T04:44:48.764Z,10.00
2023-04-01T04:47:15.413Z,9.90
2023-04-01T04:49:42.135Z,9.90
2023-04-01T04:52:08.811Z,9.90
2023-04-01T04:54:35.367Z,10.00
2023-04-01T04:57:04.191Z,10.00
2023-04-01T04:59:31.563Z,9.90
2023-04-01T05:01:58.111Z,9.90
2023-04-01T05:04:24.982Z,9.90
2023-04-01T05:06:54.014Z,9.90
2023-04-01T05:09:20.623Z,9.90
2023-04-01T05:11:47.171Z,9.90
2023-04-01T05:14:14.557Z,9.90
2023-04-01T05:16:41.155Z,9.90
2023-04-01T05:19:07.875Z,9.90
2023-04-01T05:21:34.391Z,9.90
2023-04-01T05:24:01.010Z,9.90
2023-04-01T05:26:27.576Z,9.90
2023-04-01T05:28:54.135Z,9.80
2023-04-01T05:31:20.819Z,9.90
2023-04-01T05:33:48.008Z,9.90
2023-04-01T05:36:15.816Z,9.80
2023-04-01T05:38:43.431Z,9.80
2023-04-01T05:41:10.297Z,9.80
2023-04-01T05:43:37.784Z,9.80
2023-04-01T05:46:04.438Z,9.80
2023-04-01T05:48:33.988Z,9.90
2023-04-01T05:51:00.761Z,9.80
2023-04-01T05:53:29.697Z,9.80
2023-04-01T05:55:56.306Z,9.80
2023-04-01T05:58:22.895Z,9.80
2023-04-01T06:00:59.060Z,9.80
2023-04-01T06:03:35.383Z,9.90
2023-04-01T06:06:04.716Z,9.80
2023-04-01T06:08:34.803Z,9.90
2023-04-01T06:11:08.988Z,9.90
2023-04-01T06:13:35.563Z,9.90
2023-04-01T06:16:21.046Z,9.80
2023-04-01T06:19:01.631Z,10.00
2023-04-01T06:21:28.290Z,9.90
2023-04-01T06:24:15.290Z,9.90
2023-04-01T06:27:11.288Z,9.90
2023-04-01T06:30:03.054Z,10.00
2023-04-01T06:32:29.869Z,9.90
2023-04-01T06:34:56.484Z,9.90
2023-04-01T06:37:36.548Z,10.00
2023-04-01T06:40:06.253Z,10.10
2023-04-01T06:42:32.873Z,10.00
2023-04-01T06:45:05.449Z,10.00
2023-04-01T06:47:52.412Z,10.00
2023-04-01T06:50:31.141Z,10.00
2023-04-01T06:53:16.713Z,10.10
2023-04-01T06:55:50.638Z,10.00
2023-04-01T06:58:22.769Z,10.00
2023-04-01T07:00:52.062Z,10.00
2023-04-01T07:03:34.083Z,10.00
2023-04-01T07:06:03.972Z,10.10
2023-04-01T07:08:32.343Z,10.30
2023-04-01T07:10:58.958Z,10.10
2023-04-01T07:13:29.405Z,10.20
2023-04-01T07:15:59.652Z,10.20
2023-04-01T07:18:33.285Z,10.30
2023-04-01T07:21:00.019Z,10.30
2023-04-01T07:23:37.301Z,10.40
2023-04-01T07:26:17.909Z,10.40
2023-04-01T07:28:44.547Z,10.50
2023-04-01T07:31:11.053Z,10.50
2023-04-01T07:33:44.340Z,10.60
2023-04-01T07:36:15.473Z,10.70
2023-04-01T07:38:42.042Z,10.60
2023-04-01T07:41:16.063Z,10.70
2023-04-01T07:43:54.054Z,10.70
2023-04-01T07:46:20.682Z,10.80
2023-04-01T07:48:56.782Z,10.80
2023-04-01T07:51:36.149Z,10.70
2023-04-01T07:54:08.817Z,10.90
2023-04-01T07:56:35.384Z,10.80
2023-04-01T07:59:20.243Z,10.90
2023-04-01T08:02:01.393Z,10.90
2023-04-01T08:04:36.573Z,11.00
2023-04-01T08:07:09.274Z,11.10
2023-04-01T08:10:14.460Z,11.20
2023-04-01T08:13:08.797Z,11.00
2023-04-01T08:15:38.384Z,11.00
2023-04-01T08:18:11.080Z,11.10
2023-04-01T08:20:45.375Z,11.20
2023-04-01T08:23:23.761Z,11.30
2023-04-01T08:25:57.359Z,11.20
2023-04-01T08:28:32.517Z,11.20
2023-04-01T08:31:18.702Z,11.20
2023-04-01T08:33:47.146Z,11.30
2023-04-01T08:36:16.614Z,11.30
2023-04-01T08:38:43.211Z,11.30
2023-04-01T08:41:12.472Z,11.30
2023-04-01T08:43:51.745Z,11.30
2023-04-01T08:46:36.557Z,11.30
2023-04-01T08:49:07.286Z,11.40
2023-04-01T08:51:48.693Z,11.40
2023-04-01T08:54:24.227Z,11.40
2023-04-01T08:57:05.429Z,11.40
2023-04-01T08:59:35.067Z,11.60
2023-04-01T09:02:01.704Z,11.70
2023-04-01T09:04:54.482Z,11.70
2023-04-01T09:07:39.313Z,11.70
2023-04-01T09:10:19.989Z,11.70
2023-04-01T09:13:05.458Z,11.70
2023-04-01T09:16:03.980Z,11.80
2023-04-01T09:18:37.631Z,11.80
2023-04-01T09:21:04.174Z,11.80
2023-04-01T09:23:33.715Z,11.80
2023-04-01T09:26:15.947Z,11.70
2023-04-01T09:29:01.365Z,11.70
2023-04-01T09:31:43.175Z,11.80
2023-04-01T09:34:27.524Z,11.70
2023-04-01T09:37:06.364Z,11.70
2023-04-01T09:39:38.171Z,11.70
2023-04-01T09:42:16.281Z,11.60
2023-04-01T09:44:48.248Z,11.70
2023-04-01T09:47:55.874Z,11.70
2023-04-01T09:50:41.272Z,11.70
2023-04-01T09:53:26.702Z,11.90
2023-04-01T09:55:58.969Z,11.80
2023-04-01T09:58:31.585Z,11.70
2023-04-01T10:01:10.754Z,11.80
2023-04-01T10:03:46.486Z,11.80
2023-04-01T10:06:13.072Z,11.90
2023-04-01T10:08:52.824Z,11.80
2023-04-01T10:11:19.457Z,11.80
2023-04-01T10:14:06.315Z,11.80
2023-04-01T10:16:52.880Z,11.90
2023-04-01T10:19:38.284Z,11.90
2023-04-01T10:22:30.842Z,12.00
2023-04-01T10:25:16.326Z,11.90
2023-04-01T10:27:45.913Z,12.00
2023-04-01T10:30:27.789Z,12.00
2023-04-01T10:33:16.530Z,12.00
2023-04-01T10:36:01.977Z,12.10
2023-04-01T10:38:28.569Z,12.10
2023-04-01T10:41:01.308Z,12.00
2023-04-01T10:43:37.035Z,12.20
2023-04-01T10:46:22.704Z,12.10
2023-04-01T10:48:49.270Z,12.10
2023-04-01T10:51:15.882Z,12.10
2023-04-01T10:54:09.984Z,12.10
2023-04-01T10:56:55.451Z,12.10
2023-04-01T10:59:24.832Z,12.20
2023-04-01T11:02:12.269Z,12.20
2023-04-01T11:04:57.845Z,12.20
2023-04-01T11:07:46.588Z,12.20
2023-04-01T11:10:20.499Z,12.20
2023-04-01T11:12:47.070Z,12.20
2023-04-01T11:15:32.523Z,12.20
2023-04-01T11:18:20.820Z,12.10
2023-04-01T11:21:02.997Z,12.20
2023-04-01T11:23:38.863Z,12.20
2023-04-01T11:26:10.321Z,12.40
2023-04-01T11:28:46.047Z,12.30
2023-04-01T11:31:36.066Z,12.40
2023-04-01T11:34:21.354Z,12.40
2023-04-01T11:36:54.216Z,12.30
2023-04-01T11:39:29.798Z,12.30
2023-04-01T11:42:03.157Z,12.30
2023-04-01T11:44:30.629Z,12.30
2023-04-01T11:47:03.451Z,12.40
2023-04-01T11:49:45.807Z,12.30
2023-04-01T11:52:19.160Z,12.30
2023-04-01T11:54:48.800Z,12.30
2023-04-01T11:57:34.520Z,12.30
2023-04-01T12:00:04.477Z,12.30
2023-04-01T12:02:52.068Z,12.40
2023-04-01T12:05:31.775Z,12.30
2023-04-01T12:07:58.581Z,12.30
2023-04-01T12:10:40.518Z,12.40
2023-04-01T12:13:15.888Z,12.40
2023-04-01T12:15:42.439Z,12.50
2023-04-01T12:18:27.505Z,12.40
2023-04-01T12:21:01.339Z,12.40
2023-04-01T12:23:27.898Z,12.50
2023-04-01T12:25:54.397Z,12.60
2023-04-01T12:28:21.285Z,12.50
2023-04-01T12:30:57.896Z,12.50
2023-04-01T12:33:43.410Z,12.60
2023-04-01T12:36:16.149Z,12.60
2023-04-01T12:38:59.054Z,12.60
2023-04-01T21:39:48.137Z,11.10
2023-04-01T21:42:20.866Z,11.40
2023-04-01T21:44:53.357Z,11.30
2023-04-01T21:47:38.215Z,11.30
2023-04-01T21:50:32.375Z,11.40
2023-04-01T21:53:25.020Z,11.40
2023-04-01T21:56:10.847Z,11.50
2023-04-01T21:58:56.016Z,11.50
2023-04-01T22:01:41.384Z,11.40
2023-04-01T22:04:14.036Z,11.40
2023-04-01T22:06:43.482Z,11.40
2023-04-01T22:09:30.508Z,11.40
2023-04-01T22:12:05.772Z,11.40
2023-04-01T22:14:41.143Z,11.30
2023-04-01T22:17:14.532Z,11.30
2023-04-01T22:19:47.598Z,11.40
2023-04-01T22:22:25.598Z,11.40
2023-04-01T22:25:06.291Z,11.30
2023-04-01T22:27:42.543Z,11.30
2023-04-01T22:30:24.226Z,11.30
2023-04-01T22:33:01.213Z,11.30
2023-04-01T22:35:30.652Z,11.30
2023-04-01T22:38:21.814Z,11.30
2023-04-01T22:41:09.986Z,11.20
2023-04-01T22:43:44.123Z,11.10
2023-04-01T22:46:17.007Z,11.10
2023-04-01T22:48:55.897Z,11.20
2023-04-01T22:51:27.135Z,11.20
2023-04-01T22:53:59.589Z,11.10
2023-04-01T22:56:32.879Z,11.20
2023-04-01T22:59:16.441Z,11.10
2023-04-01T23:01:46.790Z,11.00
2023-04-01T23:04:18.034Z,11.10
2023-04-01T23:06:50.972Z,11.00
2023-04-01T23:09:20.575Z,11.10
2023-04-01T23:11:55.428Z,11.20
2023-04-01T23:14:21.987Z,11.10
2023-04-01T23:16:54.361Z,11.20
2023-04-01T23:19:24.404Z,11.00
2023-04-01T23:21:57.486Z,11.00
2023-04-01T23:24:31.386Z,11.10
2023-04-01T23:27:11.735Z,11.00
2023-04-01T23:29:43.625Z,11.00
2023-04-01T23:32:20.249Z,11.10
2023-04-01T23:34:48.522Z,11.00
2023-04-01T23:37:17.744Z,10.90
2023-04-01T23:39:48.221Z,10.90
2023-04-01T23:42:18.610Z,10.80
2023-04-01T23:44:45.478Z,11.00
2023-04-01T23:47:15.101Z,10.90
2023-04-01T23:49:44.360Z,11.00
2023-04-01T23:52:11.023Z,11.00
2023-04-01T23:54:45.710Z,11.00
2023-04-01T23:57:13.458Z,11.00
2023-04-01T23:59:40.347Z,10.90
